createdAt,value
2023-05-19T00:01:55.231Z,4.43
2023-05-19T00:04:22.638Z,4.05
2023-05-19T00:06:52.690Z,4.53
2023-05-19T00:09:19.764Z,4.82
2023-05-19T00:11:46.926Z,3.40
2023-05-19T00:14:13.879Z,4.60
2023-05-19T00:16:42.894Z,6.82
2023-05-19T00:19:10.621Z,3.77
2023-05-19T00:21:40.597Z,3.72
2023-05-19T00:24:08.114Z,3.70
2023-05-19T00:26:34.862Z,4.47
2023-05-19T00:29:01.819Z,4.85
2023-05-19T00:31:29.335Z,5.22
2023-05-19T00:33:56.112Z,5.35
2023-05-19T00:36:24.405Z,5.18
2023-05-19T00:38:51.981Z,4.50
2023-05-19T00:41:18.987Z,5.22
2023-05-19T00:43:46.133Z,4.85
2023-05-19T00:46:13.021Z,4.95
2023-05-19T00:48:39.781Z,4.68
2023-05-19T00:51:07.084Z,4.13
2023-05-19T00:53:35.059Z,3.72
2023-05-19T00:56:03.182Z,4.03
2023-05-19T00:58:31.347Z,4.47
2023-05-19T01:01:04.807Z,3.90
2023-05-19T01:03:35.646Z,3.75
2023-05-19T01:06:07.903Z,3.97
2023-05-19T01:08:36.672Z,3.78
2023-05-19T01:11:08.458Z,3.72
2023-05-19T01:13:36.459Z,4.22
2023-05-19T01:16:10.345Z,4.20
2023-05-19T01:18:56.516Z,4.07
2023-05-19T01:21:54.114Z,4.38
2023-05-19T01:24:30.608Z,3.97
2023-05-19T01:27:28.302Z,3.75
2023-05-19T01:30:13.224Z,4.47
2023-05-19T01:32:42.188Z,4.05
2023-05-19T01:35:12.849Z,3.63
2023-05-19T01:37:42.750Z,3.55
2023-05-19T01:42:40.370Z,3.60
2023-05-19T01:45:10.754Z,3.97
2023-05-19T01:47:42.973Z,3.90
2023-05-19T01:50:11.246Z,4.30
2023-05-19T01:52:38.197Z,4.15
2023-05-19T01:55:07.308Z,4.18
2023-05-19T01:58:00.829Z,3.80
2023-05-19T02:00:27.485Z,4.13
2023-05-19T02:03:00.133Z,4.22
2023-05-19T02:05:36.353Z,4.32
2023-05-19T02:08:27.590Z,3.97
2023-05-19T02:11:00.933Z,4.35
2023-05-19T02:13:33.932Z,4.35
2023-05-19T02:16:05.532Z,4.55
2023-05-19T02:18:33.428Z,3.88
2023-05-19T02:21:00.195Z,5.18
2023-05-19T02:23:27.146Z,4.45
2023-05-19T02:25:55.350Z,4.57
2023-05-19T02:28:22.434Z,4.05
2023-05-19T02:30:49.159Z,4.18
2023-05-19T02:33:15.998Z,3.95
2023-05-19T02:35:43.977Z,4.10
2023-05-19T02:38:10.728Z,4.35
2023-05-19T02:40:37.853Z,5.57
2023-05-19T02:43:08.229Z,5.10
2023-05-19T02:45:34.976Z,5.30
2023-05-19T02:48:01.887Z,5.50
2023-05-19T02:50:28.602Z,5.38
2023-05-19T02:52:55.672Z,5.03
2023-05-19T02:55:22.513Z,4.88
2023-05-19T02:57:49.264Z,4.68
2023-05-19T03:00:16.994Z,5.10
2023-05-19T03:02:44.366Z,4.82
2023-05-19T03:05:11.326Z,5.60
2023-05-19T03:07:38.102Z,5.32
2023-05-19T03:10:06.940Z,5.20
2023-05-19T03:12:33.889Z,5.78
2023-05-19T03:15:01.144Z,4.70
2023-05-19T03:17:34.442Z,6.00
2023-05-19T03:22:52.331Z,5.57
2023-05-19T03:25:22.599Z,4.95
2023-05-19T03:27:50.172Z,4.85
2023-05-19T03:30:17.113Z,4.75
2023-05-19T03:32:44.047Z,4.43
2023-05-19T03:35:10.897Z,4.90
2023-05-19T03:37:37.693Z,4.78
2023-05-19T03:40:07.224Z,5.28
2023-05-19T03:42:33.928Z,4.53
2023-05-19T03:45:00.767Z,5.20
2023-05-19T03:47:27.647Z,5.15
2023-05-19T03:49:54.386Z,6.13
2023-05-19T03:52:21.873Z,4.93
2023-05-19T03:54:48.752Z,5.38
2023-05-19T03:57:16.808Z,5.05
2023-05-19T03:59:45.701Z,4.68
2023-05-19T04:02:12.461Z,6.05
2023-05-19T04:04:40.569Z,4.68
2023-05-19T04:07:07.529Z,4.97
2023-05-19T04:09:35.611Z,5.40
2023-05-19T04:12:03.001Z,4.88
2023-05-19T04:14:29.752Z,4.75
2023-05-19T04:16:56.739Z,4.35
2023-05-19T04:19:23.601Z,5.10
2023-05-19T04:21:51.085Z,5.05
2023-05-19T04:24:17.929Z,5.45
2023-05-19T04:26:47.931Z,4.55
2023-05-19T04:29:18.256Z,5.43
2023-05-19T04:31:45.868Z,5.18
2023-05-19T04:34:12.796Z,5.35
2023-05-19T04:36:39.617Z,6.10
2023-05-19T04:39:10.153Z,5.63
2023-05-19T04:41:40.251Z,5.18
2023-05-19T04:44:10.238Z,5.85
2023-05-19T04:49:03.667Z,5.32
2023-05-19T04:51:31.603Z,5.68
2023-05-19T04:53:58.583Z,5.72
2023-05-19T04:56:25.370Z,5.10
2023-05-19T04:58:53.810Z,6.32
2023-05-19T05:01:22.760Z,6.75
2023-05-19T05:03:49.623Z,6.40
2023-05-19T05:06:16.448Z,7.10
2023-05-19T05:08:43.184Z,6.13
2023-05-19T05:11:10.422Z,7.15
2023-05-19T05:13:37.466Z,7.25
2023-05-19T05:16:07.473Z,7.47
2023-05-19T05:18:35.254Z,7.60
2023-05-19T05:21:02.464Z,7.70
2023-05-19T05:23:29.853Z,7.38
2023-05-19T05:25:56.897Z,6.35
2023-05-19T05:28:23.954Z,7.68
2023-05-19T05:30:50.742Z,6.68
2023-05-19T05:33:18.313Z,7.18
2023-05-19T05:35:45.389Z,6.97
2023-05-19T05:38:12.154Z,7.93
2023-05-19T05:40:40.577Z,7.20
2023-05-19T05:43:07.318Z,6.75
2023-05-19T05:45:34.288Z,7.85
2023-05-19T05:48:01.535Z,6.65
2023-05-19T05:50:28.798Z,8.52
2023-05-19T05:52:57.753Z,6.47
2023-05-19T05:55:24.857Z,6.82
2023-05-19T05:57:52.273Z,8.65
2023-05-19T06:00:19.924Z,8.43
2023-05-19T06:02:49.505Z,7.93
2023-05-19T06:05:17.245Z,9.02
2023-05-19T06:07:44.300Z,8.32
2023-05-19T06:10:11.192Z,8.60
2023-05-19T06:12:41.214Z,8.50
2023-05-19T06:15:08.338Z,9.75
2023-05-19T06:17:38.045Z,9.63
2023-05-19T06:20:10.250Z,9.82
2023-05-19T06:22:37.518Z,10.98
2023-05-19T06:25:05.298Z,9.85
2023-05-19T06:27:34.544Z,9.57
2023-05-19T06:30:01.924Z,8.50
2023-05-19T06:32:30.059Z,10.75
2023-05-19T06:34:56.791Z,10.32
2023-05-19T06:37:24.299Z,9.50
2023-05-19T06:39:53.821Z,9.68
2023-05-19T06:42:22.783Z,9.05
2023-05-19T06:44:50.537Z,8.67
2023-05-19T06:47:18.232Z,9.00
2023-05-19T06:49:45.933Z,9.60
2023-05-19T06:52:12.729Z,9.40
2023-05-19T06:54:40.552Z,9.18
2023-05-19T06:57:08.625Z,9.52
2023-05-19T06:59:37.561Z,11.02
2023-05-19T07:02:04.926Z,10.43
2023-05-19T07:04:31.756Z,11.10
2023-05-19T07:06:58.843Z,10.65
2023-05-19T07:09:25.837Z,9.18
2023-05-19T07:11:52.589Z,9.10
2023-05-19T07:14:21.025Z,9.02
2023-05-19T07:16:47.928Z,9.88
2023-05-19T07:19:15.108Z,10.40
2023-05-19T07:21:42.700Z,9.80
2023-05-19T07:24:09.534Z,8.57
2023-05-19T07:26:37.643Z,9.00
2023-05-19T07:29:06.917Z,9.50
2023-05-19T07:31:33.768Z,9.63
2023-05-19T07:34:00.879Z,10.05
2023-05-19T07:36:27.760Z,11.68
2023-05-19T07:38:54.520Z,9.35
2023-05-19T07:41:21.900Z,11.00
2023-05-19T07:43:49.352Z,10.27
2023-05-19T07:46:16.577Z,8.82
2023-05-19T07:48:44.238Z,7.68
2023-05-19T07:51:12.828Z,7.95
2023-05-19T07:53:39.656Z,9.65
2023-05-19T07:56:07.136Z,8.80
2023-05-19T07:58:34.070Z,9.30
2023-05-19T08:01:00.916Z,9.35
2023-05-19T08:03:28.417Z,7.78
2023-05-19T08:05:55.631Z,7.07
2023-05-19T08:08:22.403Z,8.00
2023-05-19T08:10:49.446Z,7.88
2023-05-19T08:13:16.300Z,7.70
2023-05-19T08:15:44.695Z,8.05
2023-05-19T08:18:11.786Z,9.05
2023-05-19T08:20:38.707Z,9.20
2023-05-19T08:23:05.614Z,10.00
2023-05-19T08:25:33.207Z,9.05
2023-05-19T08:28:00.004Z,10.35
2023-05-19T08:30:26.897Z,9.40
2023-05-19T08:32:53.762Z,10.30
2023-05-19T08:35:20.768Z,12.18
2023-05-19T08:37:47.821Z,11.20
2023-05-19T08:40:21.402Z,9.95
2023-05-19T08:42:49.579Z,10.82
2023-05-19T08:45:17.428Z,10.93
2023-05-19T08:47:46.661Z,11.48
2023-05-19T08:50:18.554Z,10.07
2023-05-19T08:52:53.310Z,9.43
2023-05-19T08:55:34.723Z,8.98
2023-05-19T08:58:03.642Z,10.15
2023-05-19T09:00:31.103Z,8.90
2023-05-19T09:03:16.942Z,8.75
2023-05-19T09:05:46.803Z,8.93
2023-05-19T09:08:13.825Z,8.55
2023-05-19T09:10:40.821Z,8.20
2023-05-19T09:13:07.612Z,8.82
2023-05-19T09:15:37.003Z,8.68
2023-05-19T09:18:17.243Z,8.32
2023-05-19T09:20:46.081Z,8.93
2023-05-19T09:23:17.762Z,8.07
2023-05-19T09:25:54.988Z,8.50
2023-05-19T09:28:29.685Z,8.65
2023-05-19T09:31:10.346Z,11.80
2023-05-19T09:33:46.068Z,9.93
2023-05-19T09:36:14.282Z,9.43
2023-05-19T09:38:41.640Z,9.00
2023-05-19T09:41:09.324Z,8.70
2023-05-19T09:43:36.643Z,9.60
2023-05-19T09:46:06.148Z,10.02
2023-05-19T09:48:34.749Z,11.80
2023-05-19T09:51:02.585Z,11.40
2023-05-19T09:53:32.826Z,10.68
2023-05-19T09:56:02.965Z,9.80
2023-05-19T09:58:35.533Z,9.95
2023-05-19T10:01:04.807Z,11.05
2023-05-19T10:03:34.595Z,10.63
2023-05-19T10:08:30.807Z,9.55
2023-05-19T10:10:59.362Z,9.18
2023-05-19T10:13:29.596Z,10.23
2023-05-19T10:15:59.630Z,9.25
2023-05-19T10:18:29.828Z,8.50
2023-05-19T10:23:25.748Z,12.40
2023-05-19T10:25:57.212Z,15.63
2023-05-19T10:28:28.583Z,17.02
2023-05-19T10:31:01.228Z,16.20
2023-05-19T10:34:19.256Z,13.77
2023-05-19T10:36:59.785Z,11.35
2023-05-19T10:39:33.122Z,14.70
2023-05-19T10:41:59.761Z,13.95
2023-05-19T10:44:55.469Z,15.25
2023-05-19T10:47:26.398Z,14.77
2023-05-19T10:49:57.311Z,14.70
2023-05-19T10:52:29.866Z,14.13
2023-05-19T10:54:58.530Z,13.18
2023-05-19T10:57:32.043Z,14.48
2023-05-19T11:00:11.870Z,13.00
2023-05-19T11:02:40.822Z,15.35
2023-05-19T11:05:09.831Z,14.48
2023-05-19T11:07:42.074Z,13.60
2023-05-19T11:10:09.232Z,12.93
2023-05-19T11:12:45.051Z,12.85
2023-05-19T11:15:14.111Z,12.65
2023-05-19T11:17:44.432Z,12.48
2023-05-19T11:20:27.062Z,11.05
2023-05-19T11:23:08.119Z,10.98
2023-05-19T11:26:02.491Z,11.68
2023-05-19T11:28:30.751Z,10.18
2023-05-19T11:30:59.296Z,11.05
2023-05-19T11:33:30.995Z,11.27
2023-05-19T11:35:58.824Z,10.35
2023-05-19T11:38:26.655Z,10.60
2023-05-19T11:40:54.653Z,10.93
2023-05-19T11:43:25.900Z,11.10
2023-05-19T11:45:55.262Z,11.10
2023-05-19T11:48:22.736Z,11.32
2023-05-19T11:50:50.398Z,10.48
2023-05-19T11:53:19.933Z,10.13
2023-05-19T11:58:15.470Z,9.93
2023-05-19T12:00:46.235Z,9.77
2023-05-19T12:03:13.404Z,9.68
2023-05-19T12:05:49.211Z,10.52
2023-05-19T12:08:19.816Z,10.18
2023-05-19T12:10:53.640Z,9.45
2023-05-19T12:13:21.177Z,10.40
2023-05-19T12:15:48.030Z,10.55
2023-05-19T12:18:14.835Z,9.52
2023-05-19T12:20:42.054Z,9.82
2023-05-19T12:23:10.028Z,9.70
2023-05-19T12:25:38.983Z,10.60
2023-05-19T12:28:05.766Z,11.10
2023-05-19T12:30:33.956Z,9.43
2023-05-19T12:33:02.426Z,10.43
2023-05-19T12:35:33.391Z,9.85
2023-05-19T12:38:05.545Z,11.02
2023-05-19T12:40:35.077Z,10.15
2023-05-19T12:43:02.460Z,9.60
2023-05-19T12:45:35.039Z,10.77
2023-05-19T12:48:06.812Z,12.88
2023-05-19T12:50:34.771Z,11.65
2023-05-19T12:53:02.178Z,11.98
2023-05-19T12:55:29.785Z,12.70
2023-05-19T12:57:58.698Z,12.48
2023-05-19T13:00:29.244Z,11.55
2023-05-19T13:02:57.191Z,12.77
2023-05-19T13:05:24.874Z,10.30
2023-05-19T13:08:00.709Z,11.80
2023-05-19T13:10:28.462Z,11.07
2023-05-19T13:12:56.633Z,12.65
2023-05-19T13:15:26.620Z,10.80
2023-05-19T13:17:54.261Z,11.30
2023-05-19T13:20:22.308Z,11.38
2023-05-19T13:22:49.317Z,10.98
2023-05-19T13:25:16.912Z,10.18
2023-05-19T13:27:46.082Z,10.00
2023-05-19T13:30:13.681Z,11.27
2023-05-19T13:32:40.499Z,9.57
2023-05-19T13:35:07.860Z,10.00
2023-05-19T13:37:37.489Z,9.82
2023-05-19T13:40:04.409Z,11.35
2023-05-19T13:42:33.157Z,11.05
2023-05-19T13:44:59.908Z,11.18
2023-05-19T13:47:27.055Z,10.23
2023-05-19T13:49:55.798Z,10.90
2023-05-19T13:52:22.967Z,10.45
2023-05-19T13:54:49.953Z,11.60
2023-05-19T13:57:17.044Z,11.40
2023-05-19T13:59:57.592Z,11.15
2023-05-19T14:02:27.555Z,12.07
2023-05-19T14:04:54.530Z,12.43
2023-05-19T14:07:21.361Z,12.40
2023-05-19T14:09:48.161Z,12.57
2023-05-19T14:12:15.583Z,12.30
2023-05-19T14:14:42.398Z,11.73
2023-05-19T14:17:09.209Z,12.70
2023-05-19T14:19:36.090Z,12.93
2023-05-19T14:22:02.878Z,11.38
2023-05-19T14:24:29.708Z,12.65
2023-05-19T14:26:56.494Z,13.82
2023-05-19T14:29:23.332Z,14.35
2023-05-19T14:31:50.169Z,14.77
2023-05-19T14:34:21.079Z,16.40
2023-05-19T14:36:48.856Z,15.85
2023-05-19T14:39:16.510Z,16.65
2023-05-19T14:41:43.276Z,17.48
2023-05-19T14:44:10.745Z,17.17
2023-05-19T14:46:37.620Z,16.50
2023-05-19T14:49:06.558Z,16.98
2023-05-19T14:51:33.530Z,17.13
2023-05-19T14:54:01.352Z,17.45
2023-05-19T14:56:28.274Z,16.75
2023-05-19T14:58:56.614Z,18.75
2023-05-19T15:01:23.618Z,18.55
2023-05-19T15:03:52.115Z,18.17
2023-05-19T15:06:18.867Z,16.98
2023-05-19T15:08:46.048Z,16.23
2023-05-19T15:11:13.102Z,15.32
2023-05-19T15:13:40.070Z,14.13
2023-05-19T15:16:17.750Z,15.05
2023-05-19T15:18:45.639Z,16.65
2023-05-19T15:21:12.625Z,15.90
2023-05-19T15:23:39.431Z,16.83
2023-05-19T15:26:07.022Z,18.10
2023-05-19T15:28:34.348Z,17.20
2023-05-19T15:31:01.268Z,17.35
2023-05-19T15:33:28.396Z,18.42
2023-05-19T15:35:55.121Z,17.90
2023-05-19T15:38:22.002Z,15.90
2023-05-19T15:40:49.820Z,17.05
2023-05-19T15:43:17.589Z,16.90
2023-05-19T15:45:44.339Z,16.00
2023-05-19T15:48:11.682Z,14.93
2023-05-19T15:50:38.752Z,13.55
2023-05-19T15:53:07.804Z,13.80
2023-05-19T15:55:34.679Z,15.55
2023-05-19T15:58:01.598Z,13.68
2023-05-19T16:00:28.420Z,13.80
2023-05-19T16:02:55.209Z,15.23
2023-05-19T16:05:22.099Z,14.30
2023-05-19T16:07:48.837Z,13.98
2023-05-19T16:10:15.717Z,14.45
2023-05-19T16:12:42.573Z,12.13
2023-05-19T16:15:09.863Z,12.20
2023-05-19T16:17:36.605Z,9.45
2023-05-19T16:20:04.107Z,10.50
2023-05-19T16:22:31.572Z,10.55
2023-05-19T16:24:58.357Z,11.60
2023-05-19T16:27:25.146Z,12.60
2023-05-19T16:29:52.047Z,13.88
2023-05-19T16:32:18.909Z,17.48
2023-05-19T16:34:45.997Z,19.80
2023-05-19T16:37:12.782Z,20.55
2023-05-19T16:39:40.498Z,23.05
2023-05-19T16:42:07.459Z,22.23
2023-05-19T16:44:34.886Z,21.90
2023-05-19T16:47:01.587Z,20.63
2023-05-19T16:49:28.447Z,18.27
2023-05-19T16:51:55.928Z,18.75
2023-05-19T16:54:23.533Z,18.88
2023-05-19T16:56:51.329Z,19.50
2023-05-19T16:59:18.978Z,20.98
2023-05-19T17:01:45.868Z,21.20
2023-05-19T17:04:13.344Z,21.85
2023-05-19T17:06:40.306Z,22.98
2023-05-19T17:09:07.121Z,20.85
2023-05-19T17:11:34.222Z,19.63
2023-05-19T17:14:04.922Z,21.63
2023-05-19T17:16:31.757Z,21.80
2023-05-19T17:18:58.604Z,21.42
2023-05-19T17:21:26.245Z,20.80
2023-05-19T17:23:53.031Z,22.73
2023-05-19T17:26:19.910Z,22.45
2023-05-19T17:28:46.698Z,22.65
2023-05-19T17:31:15.262Z,23.02
2023-05-19T17:33:43.539Z,18.35
2023-05-19T17:36:10.578Z,17.55
2023-05-19T17:38:40.485Z,15.73
2023-05-19T17:41:12.262Z,17.05
2023-05-19T17:43:40.895Z,17.27
2023-05-19T17:46:07.912Z,18.60
2023-05-19T17:48:36.501Z,18.45
2023-05-19T17:51:05.105Z,20.92
2023-05-19T17:53:34.250Z,22.98
2023-05-19T17:56:03.818Z,22.10
2023-05-19T17:58:30.848Z,22.70
2023-05-19T18:00:57.849Z,23.10
2023-05-19T18:03:26.392Z,22.70
2023-05-19T18:05:53.532Z,23.58
2023-05-19T18:08:20.741Z,20.48
2023-05-19T18:10:48.809Z,20.33
2023-05-19T18:13:15.768Z,20.13
2023-05-19T18:15:42.817Z,18.25
2023-05-19T18:18:10.996Z,17.38
2023-05-19T18:20:41.443Z,17.33
2023-05-19T18:23:08.249Z,17.58
2023-05-19T18:25:35.933Z,17.83
2023-05-19T18:28:02.760Z,17.40
2023-05-19T18:30:29.776Z,17.75
2023-05-19T18:32:56.762Z,16.63
2023-05-19T18:35:23.726Z,15.98
2023-05-19T18:37:51.678Z,16.40
2023-05-19T18:40:18.461Z,16.25
2023-05-19T18:42:45.465Z,17.08
2023-05-19T18:45:12.407Z,16.58
2023-05-19T18:47:39.269Z,16.17
2023-05-19T18:50:07.276Z,15.13
2023-05-19T18:52:34.078Z,15.48
2023-05-19T18:55:01.362Z,16.05
2023-05-19T18:57:28.933Z,15.23
2023-05-19T18:59:55.806Z,17.48
2023-05-19T19:02:22.963Z,18.73
2023-05-19T19:04:50.027Z,17.02
2023-05-19T19:07:16.915Z,18.15
2023-05-19T19:09:44.033Z,17.27
2023-05-19T19:12:11.137Z,16.15
2023-05-19T19:14:38.637Z,17.55
2023-05-19T19:17:06.134Z,17.52
2023-05-19T19:19:33.373Z,16.13
2023-05-19T19:22:00.477Z,15.82
2023-05-19T19:24:28.726Z,15.38
2023-05-19T19:26:55.622Z,16.73
2023-05-19T19:29:22.428Z,17.13
2023-05-19T19:31:49.310Z,16.30
2023-05-19T19:34:17.835Z,17.55
2023-05-19T19:36:48.035Z,18.70
2023-05-19T19:39:14.971Z,17.15
2023-05-19T19:41:41.809Z,15.00
2023-05-19T19:44:08.612Z,17.33
2023-05-19T19:46:35.877Z,17.77
2023-05-19T19:49:02.798Z,16.23
2023-05-19T19:51:29.984Z,15.60
2023-05-19T19:53:58.441Z,15.88
2023-05-19T19:56:27.653Z,16.65
2023-05-19T19:58:56.914Z,16.38
2023-05-19T20:01:27.750Z,17.45
2023-05-19T20:03:55.487Z,18.08
2023-05-19T20:06:22.442Z,18.67
2023-05-19T20:08:49.983Z,19.23
2023-05-19T20:11:17.499Z,18.95
2023-05-19T20:13:44.332Z,17.70
2023-05-19T20:16:11.180Z,17.75
2023-05-19T20:18:38.851Z,16.27
2023-05-19T20:21:05.677Z,18.65
2023-05-19T20:23:32.598Z,19.88
2023-05-19T20:26:11.826Z,15.57
2023-05-19T20:28:39.824Z,17.25
2023-05-19T20:31:08.090Z,16.23
2023-05-19T20:33:35.085Z,15.60
2023-05-19T20:36:01.960Z,16.92
2023-05-19T20:38:28.718Z,16.73
2023-05-19T20:40:55.772Z,18.23
2023-05-19T20:43:22.569Z,14.63
2023-05-19T20:45:49.443Z,16.75
2023-05-19T20:48:16.675Z,15.60
2023-05-19T20:50:43.505Z,16.27
2023-05-19T20:53:10.282Z,16.80
2023-05-19T20:55:38.888Z,17.77
2023-05-19T20:58:05.848Z,19.25
2023-05-19T21:00:32.901Z,17.55
2023-05-19T21:03:00.347Z,20.05
2023-05-19T21:05:27.212Z,19.10
2023-05-19T21:07:55.672Z,17.15
2023-05-19T21:10:23.470Z,17.77
2023-05-19T21:12:50.189Z,16.38
2023-05-19T21:15:17.560Z,17.42
2023-05-19T21:17:44.401Z,17.70
2023-05-19T21:20:13.833Z,21.35
2023-05-19T21:22:41.035Z,18.08
2023-05-19T21:25:08.171Z,18.70
2023-05-19T21:27:37.026Z,19.38
2023-05-19T21:30:06.122Z,18.92
2023-05-19T21:32:33.007Z,18.10
2023-05-19T21:35:00.247Z,17.58
2023-05-19T21:37:28.167Z,17.88
2023-05-19T21:39:54.921Z,17.45
2023-05-19T21:42:21.749Z,19.38
2023-05-19T21:44:48.524Z,19.13
2023-05-19T21:47:16.176Z,19.50
2023-05-19T21:49:43.158Z,18.30
2023-05-19T21:52:10.452Z,19.25
2023-05-19T21:54:37.294Z,18.60
2023-05-19T21:57:04.240Z,21.27
2023-05-19T21:59:30.998Z,19.92
2023-05-19T22:01:58.500Z,19.38
2023-05-19T22:04:25.524Z,17.95
2023-05-19T22:06:53.110Z,17.98
2023-05-19T22:09:19.895Z,19.48
2023-05-19T22:11:46.681Z,20.38
2023-05-19T22:14:13.682Z,20.27
2023-05-19T22:16:40.600Z,20.90
2023-05-19T22:19:07.648Z,21.08
2023-05-19T22:21:34.521Z,21.33
2023-05-19T22:24:02.603Z,19.15
2023-05-19T22:26:30.600Z,19.92
2023-05-19T22:28:58.572Z,20.20
2023-05-19T22:31:25.317Z,21.52
2023-05-19T22:33:53.100Z,19.70
2023-05-19T22:36:19.928Z,21.08
2023-05-19T22:38:46.653Z,21.98
2023-05-19T22:41:13.421Z,21.83
2023-05-19T22:43:40.307Z,21.05
2023-05-19T22:46:07.331Z,21.02
2023-05-19T22:48:34.138Z,21.15
2023-05-19T22:51:01.024Z,20.17
2023-05-19T22:53:27.742Z,20.95
2023-05-19T22:55:54.515Z,18.55
2023-05-19T22:58:21.314Z,18.05
2023-05-19T23:00:48.133Z,17.58
2023-05-19T23:03:16.192Z,19.95
2023-05-19T23:05:44.404Z,17.27
2023-05-19T23:08:11.497Z,16.88
2023-05-19T23:10:38.367Z,17.10
2023-05-19T23:13:05.135Z,18.30
2023-05-19T23:15:32.114Z,19.20
2023-05-19T23:17:59.081Z,18.25
2023-05-19T23:20:25.826Z,18.08
2023-05-19T23:22:52.606Z,17.35
2023-05-19T23:25:19.389Z,18.50
2023-05-19T23:27:47.055Z,18.35
2023-05-19T23:30:13.773Z,17.48
2023-05-19T23:32:41.724Z,18.70
2023-05-19T23:35:13.058Z,18.38
2023-05-19T23:37:39.970Z,18.27
2023-05-19T23:40:08.503Z,19.95
2023-05-19T23:42:35.343Z,18.90
2023-05-19T23:45:02.484Z,19.50
2023-05-19T23:47:29.236Z,21.20
2023-05-19T23:49:56.524Z,19.95
2023-05-19T23:52:23.270Z,19.13
2023-05-19T23:54:55.010Z,19.83
2023-05-19T23:57:21.888Z,20.02
2023-05-19T23:59:48.666Z,20.98
